Relevés horaires Semmerzake (Belgique)


Relevés horaires à Semmerzake - Vendredi 11 Juin 2021
Heure UTC1 Température [°C] Vent [km/h] Hum. [%] Pres.4 [hPa] Visi. [Km] Nébu. [octa] Préc.5 [mm] Cond.
2m. Res. Ros. Dir.2 Vit. Moy. Raf.3
23:00 16.2 16.2 14.0 OSO 5.6 -- 11.1 87 1020.6(0.5/3h) 20 -- -- --
22:00 17.1 17.1 14.6 SO 5.6 -- 9.3 85 1020.6(0.7/3h) 20 -- -- --
21:00 18.6 18.6 14.8 SO 3.7 -- 11.1 79 1020.1(0.3/3h) 20 -- -- --
20:00 19.7 19.7 14.9 OSO 3.7 -- 7.4 74 1020(0.4/3h) 20 -- -- --
19:00 21.1 21.1 15.1 O 3.7 -- 11.1 69 1019.7(0.0/3h) 20 -- -- --
18:00 22.7 22.7 15.9 O 5.6 -- 13.0 65 1019.7(-0.1/3h) 17 -- -- --
17:00 23.6 23.6 16.1 O 5.6 -- 11.1 63 1019.5(-0.5/3h) 20 -- -- --
16:00 24.2 24.2 16.1 OSO 5.6 -- 11.1 61 1019.6(-0.7/3h) 20 -- -- --
15:00 23.3 23.3 15.6 OSO 5.6 -- 13.0 62 1019.8(-0.6/3h) 20 -- -- --
14:00 22.7 22.7 15.8 O 5.6 -- 11.1 65 1020(-0.5/3h) 20 -- -- --
13:00 22.8 22.8 15.9 O 5.6 7.4 13.0 65 1020.3(-0.4/3h) 20 -- -- --
12:00 21.7 21.7 15.6 OSO 5.6 -- 11.1 68 1020.5(-0.5/3h) 14 -- -- --
11:00 21.4 21.4 15.9 O 3.7 -- 9.3 71 1020.7(-0.4/3h) 17 -- -- --
10:00 19.7 19.7 15.6 SO 5.6 -- 9.3 77 1020.7(-0.3/3h) 19 -- -- --
09:00 17.1 17.1 14.8 SSO 3.7 -- 9.3 86 1021.2(0.2/3h) 14 -- -- --
08:00 15.5 15.5 14.5 OSO 3.7 -- 9.3 94 1021.2(0.6/3h) 13 -- -- --
07:00 14.4 14.4 13.8 O 3.7 -- 7.4 96 1021.2(0.9/3h) 7 -- -- --
06:00 14.6 14.6 13.7 O 3.7 -- 7.4 94 1021.1(0.6/3h) 8 -- -- --
05:00 14.5 14.5 13.6 SO 3.7 -- 5.6 94 1020.6(0.0/3h) 16 -- -- --
04:00 13.5 13.5 12.9 SSO 3.7 -- 5.6 96 1020.2(-0.4/3h) 13 -- -- --
03:00 13.8 13.8 13.0 NNO 1.9 -- 5.6 95 1020.3(-0.5/3h) 16 -- -- --
02:00 14.1 14.1 13.0 SSO 3.7 -- 3.7 93 1020.6(-0.3/3h) 17 -- -- --
01:00 14.9 14.9 13.6 NNO 1.9 -- 3.7 92 1020.7(-0.4/3h) 19 -- -- --
00:00 15.6 15.6 14.2 NNO 1.9 -- 9.3 91 1020.8(-0.1/3h) 19 -- -- --

1 Coordinated Universal Time. Actuellement il est 11:00 locale et 10:00 UTC.

2 Le vent souffle depuis la direction indiquée vers la direction oposée.

3 Les rafales max. sont disponible 40 min après l'heure du relevé.

4 Pour les stations d'altitude (plus de 600m) le géopotentiel du niveau le plus proche de la pression obligatoire est indiqué.

5 Les stations disposant d'un diffuseur peuvent indiquer "trace". Cela signifie que des précipitations ont touchés le sol mais que la quantité est inférieure à 0.1 mm.

Récapitulatif de la journée
Température [°C] Vent [km/h] Ensoleillement4 [h] Precipitations totale5 [mm] Pression [Hpa]
Min1 Max.2 Moy.3 Max. Min Max.
13.3 24.4 7.4 13.0 0 h 0 min 0 1019.5 1021.2

1 Température minimale relevée entre 18:00 UTC la veille et 18:00 UTC le jour donné.

2 Température maximale relevée entre 06:00 UTC le jour donné et 06:00 UTC le lendemain.

3 Vent moyen de la journée basé sur les relevés horaires.

4 Ensoleillement en heures relevé entre 06:00 UTC la veille et 06:00 UTC le jour donné.

5 Précipitations totales tombées entre 06:00 UTC la jour donné et 06:00 UTC le lendemain.

Graphiques horaires